sensor_id;sensor_type;location;lat;lon;timestamp;P1;durP1;ratioP1;P2;durP2;ratioP2
17133;SDS011;8682;52.120;5.252;2022-10-18T00:00:25;143.63;;;131.07;;
17133;SDS011;8682;52.120;5.252;2022-10-18T00:02:52;144.07;;;131.03;;
17133;SDS011;8682;52.120;5.252;2022-10-18T00:05:19;142.07;;;128.63;;
17133;SDS011;8682;52.120;5.252;2022-10-18T00:07:46;140.83;;;127.80;;
17133;SDS011;8682;52.120;5.252;2022-10-18T00:10:15;144.80;;;132.53;;
17133;SDS011;8682;52.120;5.252;2022-10-18T00:12:42;157.93;;;143.73;;
17133;SDS011;8682;52.120;5.252;2022-10-18T00:15:09;144.40;;;131.90;;
17133;SDS011;8682;52.120;5.252;2022-10-18T00:17:37;140.37;;;127.60;;
17133;SDS011;8682;52.120;5.252;2022-10-18T00:20:05;153.60;;;140.27;;
17133;SDS011;8682;52.120;5.252;2022-10-18T00:22:33;151.10;;;135.57;;
17133;SDS011;8682;52.120;5.252;2022-10-18T00:25:00;129.53;;;118.77;;
17133;SDS011;8682;52.120;5.252;2022-10-18T00:27:28;159.07;;;145.67;;
17133;SDS011;8682;52.120;5.252;2022-10-18T00:29:56;139.93;;;127.97;;
17133;SDS011;8682;52.120;5.252;2022-10-18T00:32:23;145.00;;;132.37;;
17133;SDS011;8682;52.120;5.252;2022-10-18T00:34:50;146.43;;;134.03;;
17133;SDS011;8682;52.120;5.252;2022-10-18T00:37:17;141.77;;;128.63;;
17133;SDS011;8682;52.120;5.252;2022-10-18T00:39:45;138.97;;;126.73;;
17133;SDS011;8682;52.120;5.252;2022-10-18T00:42:12;150.37;;;137.40;;
17133;SDS011;8682;52.120;5.252;2022-10-18T00:45:03;133.33;;;121.77;;
17133;SDS011;8682;52.120;5.252;2022-10-18T00:47:30;139.43;;;126.87;;
17133;SDS011;8682;52.120;5.252;2022-10-18T00:49:59;138.27;;;125.97;;
17133;SDS011;8682;52.120;5.252;2022-10-18T00:52:28;143.73;;;131.70;;
17133;SDS011;8682;52.120;5.252;2022-10-18T00:54:56;142.87;;;129.63;;
17133;SDS011;8682;52.120;5.252;2022-10-18T00:57:24;132.93;;;120.17;;
17133;SDS011;8682;52.120;5.252;2022-10-18T00:59:51;134.77;;;122.90;;
17133;SDS011;8682;52.120;5.252;2022-10-18T01:02:20;147.97;;;134.23;;
17133;SDS011;8682;52.120;5.252;2022-10-18T01:04:47;136.37;;;123.87;;
17133;SDS011;8682;52.120;5.252;2022-10-18T01:07:19;137.50;;;124.77;;
17133;SDS011;8682;52.120;5.252;2022-10-18T01:09:51;137.97;;;125.00;;
17133;SDS011;8682;52.120;5.252;2022-10-18T01:12:23;135.07;;;123.80;;
17133;SDS011;8682;52.120;5.252;2022-10-18T01:14:53;143.53;;;130.60;;
17133;SDS011;8682;52.120;5.252;2022-10-18T01:17:25;136.90;;;123.97;;
17133;SDS011;8682;52.120;5.252;2022-10-18T01:20:10;140.03;;;126.87;;
17133;SDS011;8682;52.120;5.252;2022-10-18T01:22:43;138.67;;;125.57;;
17133;SDS011;8682;52.120;5.252;2022-10-18T01:25:24;124.93;;;113.63;;
17133;SDS011;8682;52.120;5.252;2022-10-18T01:27:54;141.63;;;128.00;;
17133;SDS011;8682;52.120;5.252;2022-10-18T01:30:33;136.13;;;124.20;;
17133;SDS011;8682;52.120;5.252;2022-10-18T01:33:03;129.77;;;117.33;;
17133;SDS011;8682;52.120;5.252;2022-10-18T01:35:32;127.60;;;115.90;;
17133;SDS011;8682;52.120;5.252;2022-10-18T01:38:01;135.30;;;123.13;;
17133;SDS011;8682;52.120;5.252;2022-10-18T01:40:30;133.60;;;121.17;;
17133;SDS011;8682;52.120;5.252;2022-10-18T01:42:58;135.03;;;122.77;;
17133;SDS011;8682;52.120;5.252;2022-10-18T01:45:26;144.30;;;132.07;;
17133;SDS011;8682;52.120;5.252;2022-10-18T01:47:55;133.70;;;120.97;;
17133;SDS011;8682;52.120;5.252;2022-10-18T01:50:29;137.50;;;124.93;;
17133;SDS011;8682;52.120;5.252;2022-10-18T01:52:57;125.07;;;113.53;;
17133;SDS011;8682;52.120;5.252;2022-10-18T01:55:25;137.03;;;124.70;;
17133;SDS011;8682;52.120;5.252;2022-10-18T01:57:55;129.67;;;116.80;;
17133;SDS011;8682;52.120;5.252;2022-10-18T02:00:26;133.77;;;122.17;;
17133;SDS011;8682;52.120;5.252;2022-10-18T02:02:59;137.57;;;124.07;;
17133;SDS011;8682;52.120;5.252;2022-10-18T02:05:29;139.70;;;126.57;;
17133;SDS011;8682;52.120;5.252;2022-10-18T02:07:59;135.13;;;122.83;;
17133;SDS011;8682;52.120;5.252;2022-10-18T02:10:30;125.87;;;114.10;;
17133;SDS011;8682;52.120;5.252;2022-10-18T02:12:59;132.17;;;120.20;;
17133;SDS011;8682;52.120;5.252;2022-10-18T02:15:28;131.10;;;118.77;;
17133;SDS011;8682;52.120;5.252;2022-10-18T02:17:56;120.53;;;109.03;;
17133;SDS011;8682;52.120;5.252;2022-10-18T02:20:24;134.27;;;121.77;;
17133;SDS011;8682;52.120;5.252;2022-10-18T02:22:54;122.87;;;111.20;;
17133;SDS011;8682;52.120;5.252;2022-10-18T02:25:23;127.60;;;116.60;;
17133;SDS011;8682;52.120;5.252;2022-10-18T02:27:52;130.13;;;118.33;;
17133;SDS011;8682;52.120;5.252;2022-10-18T02:30:19;129.60;;;117.47;;
17133;SDS011;8682;52.120;5.252;2022-10-18T02:32:49;137.83;;;124.47;;
17133;SDS011;8682;52.120;5.252;2022-10-18T02:35:20;129.37;;;116.83;;
17133;SDS011;8682;52.120;5.252;2022-10-18T02:37:49;122.83;;;110.60;;
17133;SDS011;8682;52.120;5.252;2022-10-18T02:40:17;133.70;;;122.37;;
17133;SDS011;8682;52.120;5.252;2022-10-18T02:42:45;119.80;;;108.47;;
17133;SDS011;8682;52.120;5.252;2022-10-18T02:45:13;130.97;;;119.13;;
17133;SDS011;8682;52.120;5.252;2022-10-18T02:47:40;112.27;;;102.07;;
17133;SDS011;8682;52.120;5.252;2022-10-18T02:50:08;120.50;;;109.27;;
17133;SDS011;8682;52.120;5.252;2022-10-18T02:52:35;137.80;;;126.07;;
17133;SDS011;8682;52.120;5.252;2022-10-18T02:55:04;128.83;;;117.60;;
17133;SDS011;8682;52.120;5.252;2022-10-18T02:57:31;127.03;;;115.07;;
17133;SDS011;8682;52.120;5.252;2022-10-18T02:59:58;132.10;;;120.63;;
17133;SDS011;8682;52.120;5.252;2022-10-18T03:02:25;132.83;;;120.70;;
17133;SDS011;8682;52.120;5.252;2022-10-18T03:04:53;130.90;;;118.80;;
17133;SDS011;8682;52.120;5.252;2022-10-18T03:07:20;125.20;;;113.47;;
17133;SDS011;8682;52.120;5.252;2022-10-18T03:09:47;124.80;;;113.90;;
17133;SDS011;8682;52.120;5.252;2022-10-18T03:12:15;124.53;;;112.53;;
17133;SDS011;8682;52.120;5.252;2022-10-18T03:14:43;119.73;;;108.93;;
17133;SDS011;8682;52.120;5.252;2022-10-18T03:17:10;114.17;;;103.17;;
17133;SDS011;8682;52.120;5.252;2022-10-18T03:19:37;127.03;;;115.83;;
17133;SDS011;8682;52.120;5.252;2022-10-18T03:22:04;141.53;;;128.53;;
17133;SDS011;8682;52.120;5.252;2022-10-18T03:24:31;139.83;;;127.63;;
17133;SDS011;8682;52.120;5.252;2022-10-18T03:26:58;137.47;;;125.23;;
17133;SDS011;8682;52.120;5.252;2022-10-18T03:29:27;134.47;;;123.00;;
17133;SDS011;8682;52.120;5.252;2022-10-18T03:31:54;133.90;;;121.17;;
17133;SDS011;8682;52.120;5.252;2022-10-18T03:34:22;129.07;;;117.97;;
17133;SDS011;8682;52.120;5.252;2022-10-18T03:36:49;134.70;;;122.63;;
17133;SDS011;8682;52.120;5.252;2022-10-18T03:39:16;138.10;;;125.97;;
17133;SDS011;8682;52.120;5.252;2022-10-18T03:41:43;140.03;;;127.20;;
17133;SDS011;8682;52.120;5.252;2022-10-18T03:44:10;127.90;;;116.80;;
17133;SDS011;8682;52.120;5.252;2022-10-18T03:46:38;133.93;;;119.90;;
17133;SDS011;8682;52.120;5.252;2022-10-18T03:49:05;138.00;;;125.63;;
17133;SDS011;8682;52.120;5.252;2022-10-18T03:51:33;137.53;;;125.50;;
17133;SDS011;8682;52.120;5.252;2022-10-18T03:54:00;134.03;;;122.47;;
17133;SDS011;8682;52.120;5.252;2022-10-18T03:56:27;134.10;;;121.43;;
17133;SDS011;8682;52.120;5.252;2022-10-18T03:58:54;135.73;;;123.53;;
17133;SDS011;8682;52.120;5.252;2022-10-18T04:01:22;135.80;;;123.60;;
17133;SDS011;8682;52.120;5.252;2022-10-18T04:03:50;132.03;;;120.90;;
17133;SDS011;8682;52.120;5.252;2022-10-18T04:06:17;137.90;;;124.50;;
17133;SDS011;8682;52.120;5.252;2022-10-18T04:08:44;136.20;;;124.53;;
17133;SDS011;8682;52.120;5.252;2022-10-18T04:11:11;131.40;;;119.47;;
17133;SDS011;8682;52.120;5.252;2022-10-18T04:13:38;136.53;;;123.67;;
17133;SDS011;8682;52.120;5.252;2022-10-18T04:16:06;152.73;;;138.37;;
17133;SDS011;8682;52.120;5.252;2022-10-18T04:18:33;138.43;;;125.20;;
17133;SDS011;8682;52.120;5.252;2022-10-18T04:21:01;137.23;;;124.93;;
17133;SDS011;8682;52.120;5.252;2022-10-18T04:23:28;134.57;;;120.33;;
17133;SDS011;8682;52.120;5.252;2022-10-18T04:25:55;126.07;;;113.97;;
17133;SDS011;8682;52.120;5.252;2022-10-18T04:28:23;127.40;;;115.10;;
17133;SDS011;8682;52.120;5.252;2022-10-18T04:30:50;125.13;;;113.60;;
17133;SDS011;8682;52.120;5.252;2022-10-18T04:33:17;129.97;;;118.90;;
17133;SDS011;8682;52.120;5.252;2022-10-18T04:35:44;135.50;;;122.37;;
17133;SDS011;8682;52.120;5.252;2022-10-18T04:38:13;121.43;;;110.17;;
17133;SDS011;8682;52.120;5.252;2022-10-18T04:40:40;130.67;;;118.87;;
17133;SDS011;8682;52.120;5.252;2022-10-18T04:43:07;139.37;;;126.17;;
17133;SDS011;8682;52.120;5.252;2022-10-18T04:45:34;126.07;;;113.83;;
17133;SDS011;8682;52.120;5.252;2022-10-18T04:48:02;123.93;;;112.43;;
17133;SDS011;8682;52.120;5.252;2022-10-18T04:50:29;130.73;;;117.67;;
17133;SDS011;8682;52.120;5.252;2022-10-18T04:52:56;128.87;;;115.93;;
17133;SDS011;8682;52.120;5.252;2022-10-18T04:55:25;120.87;;;109.47;;
17133;SDS011;8682;52.120;5.252;2022-10-18T04:57:52;121.40;;;109.27;;
17133;SDS011;8682;52.120;5.252;2022-10-18T05:00:19;132.10;;;120.20;;
17133;SDS011;8682;52.120;5.252;2022-10-18T05:02:46;126.53;;;114.57;;
17133;SDS011;8682;52.120;5.252;2022-10-18T05:05:13;111.33;;;100.47;;
17133;SDS011;8682;52.120;5.252;2022-10-18T05:07:41;131.27;;;117.67;;
17133;SDS011;8682;52.120;5.252;2022-10-18T05:10:08;126.87;;;114.17;;
17133;SDS011;8682;52.120;5.252;2022-10-18T05:12:36;118.53;;;107.30;;
17133;SDS011;8682;52.120;5.252;2022-10-18T05:15:04;114.00;;;103.00;;
17133;SDS011;8682;52.120;5.252;2022-10-18T05:17:31;114.73;;;103.63;;
17133;SDS011;8682;52.120;5.252;2022-10-18T05:19:58;122.03;;;110.03;;
17133;SDS011;8682;52.120;5.252;2022-10-18T05:22:25;107.70;;;97.73;;
17133;SDS011;8682;52.120;5.252;2022-10-18T05:24:52;127.90;;;114.20;;
17133;SDS011;8682;52.120;5.252;2022-10-18T05:27:19;120.30;;;108.40;;
17133;SDS011;8682;52.120;5.252;2022-10-18T05:29:48;122.07;;;110.67;;
17133;SDS011;8682;52.120;5.252;2022-10-18T05:32:15;122.03;;;109.87;;
17133;SDS011;8682;52.120;5.252;2022-10-18T05:34:42;120.60;;;109.03;;
17133;SDS011;8682;52.120;5.252;2022-10-18T05:37:09;122.97;;;110.67;;
17133;SDS011;8682;52.120;5.252;2022-10-18T05:39:36;127.20;;;113.80;;
17133;SDS011;8682;52.120;5.252;2022-10-18T05:42:04;113.77;;;103.10;;
17133;SDS011;8682;52.120;5.252;2022-10-18T05:44:31;120.83;;;110.13;;
17133;SDS011;8682;52.120;5.252;2022-10-18T05:46:59;116.63;;;105.70;;
17133;SDS011;8682;52.120;5.252;2022-10-18T05:49:26;122.17;;;111.83;;
17133;SDS011;8682;52.120;5.252;2022-10-18T05:51:53;117.47;;;106.20;;
17133;SDS011;8682;52.120;5.252;2022-10-18T05:54:21;116.47;;;104.73;;
17133;SDS011;8682;52.120;5.252;2022-10-18T05:56:48;124.83;;;113.50;;
17133;SDS011;8682;52.120;5.252;2022-10-18T05:59:15;122.10;;;109.47;;
17133;SDS011;8682;52.120;5.252;2022-10-18T06:01:42;108.50;;;98.50;;
17133;SDS011;8682;52.120;5.252;2022-10-18T06:04:10;117.27;;;105.80;;
17133;SDS011;8682;52.120;5.252;2022-10-18T06:06:38;119.10;;;107.57;;
17133;SDS011;8682;52.120;5.252;2022-10-18T06:09:05;115.23;;;104.17;;
17133;SDS011;8682;52.120;5.252;2022-10-18T06:11:33;116.43;;;105.70;;
17133;SDS011;8682;52.120;5.252;2022-10-18T06:14:01;119.77;;;107.43;;
17133;SDS011;8682;52.120;5.252;2022-10-18T06:16:29;126.17;;;113.67;;
17133;SDS011;8682;52.120;5.252;2022-10-18T06:18:56;117.90;;;107.47;;
17133;SDS011;8682;52.120;5.252;2022-10-18T06:21:25;115.60;;;104.33;;
17133;SDS011;8682;52.120;5.252;2022-10-18T06:23:52;126.50;;;114.90;;
17133;SDS011;8682;52.120;5.252;2022-10-18T06:26:20;112.27;;;101.63;;
17133;SDS011;8682;52.120;5.252;2022-10-18T06:28:48;125.33;;;113.77;;
17133;SDS011;8682;52.120;5.252;2022-10-18T06:31:15;118.57;;;107.27;;
17133;SDS011;8682;52.120;5.252;2022-10-18T06:33:42;121.73;;;108.90;;
17133;SDS011;8682;52.120;5.252;2022-10-18T06:36:11;135.33;;;122.50;;
17133;SDS011;8682;52.120;5.252;2022-10-18T06:38:40;126.30;;;113.90;;
17133;SDS011;8682;52.120;5.252;2022-10-18T06:41:07;113.90;;;103.27;;
17133;SDS011;8682;52.120;5.252;2022-10-18T06:43:34;124.23;;;111.87;;
17133;SDS011;8682;52.120;5.252;2022-10-18T06:46:02;120.57;;;108.40;;
17133;SDS011;8682;52.120;5.252;2022-10-18T06:48:31;108.00;;;97.20;;
17133;SDS011;8682;52.120;5.252;2022-10-18T06:50:59;113.00;;;101.97;;
17133;SDS011;8682;52.120;5.252;2022-10-18T06:53:28;109.37;;;98.53;;
17133;SDS011;8682;52.120;5.252;2022-10-18T06:55:59;116.67;;;106.07;;
17133;SDS011;8682;52.120;5.252;2022-10-18T06:58:26;118.40;;;106.83;;
17133;SDS011;8682;52.120;5.252;2022-10-18T07:00:53;124.97;;;112.30;;
17133;SDS011;8682;52.120;5.252;2022-10-18T07:03:21;128.60;;;115.73;;
17133;SDS011;8682;52.120;5.252;2022-10-18T07:05:48;117.30;;;106.20;;
17133;SDS011;8682;52.120;5.252;2022-10-18T07:08:15;116.60;;;105.90;;
17133;SDS011;8682;52.120;5.252;2022-10-18T07:10:49;117.47;;;106.53;;
17133;SDS011;8682;52.120;5.252;2022-10-18T07:13:17;120.37;;;109.13;;
17133;SDS011;8682;52.120;5.252;2022-10-18T07:15:44;123.33;;;111.90;;
17133;SDS011;8682;52.120;5.252;2022-10-18T07:18:11;115.43;;;104.33;;
17133;SDS011;8682;52.120;5.252;2022-10-18T07:20:39;114.93;;;103.77;;
17133;SDS011;8682;52.120;5.252;2022-10-18T07:23:06;125.70;;;113.90;;
17133;SDS011;8682;52.120;5.252;2022-10-18T07:25:35;117.40;;;104.57;;
17133;SDS011;8682;52.120;5.252;2022-10-18T07:28:02;127.37;;;115.37;;
17133;SDS011;8682;52.120;5.252;2022-10-18T07:30:31;131.47;;;119.07;;
17133;SDS011;8682;52.120;5.252;2022-10-18T07:32:58;128.00;;;115.63;;
17133;SDS011;8682;52.120;5.252;2022-10-18T07:35:25;129.97;;;117.93;;
17133;SDS011;8682;52.120;5.252;2022-10-18T07:37:52;123.60;;;113.27;;
17133;SDS011;8682;52.120;5.252;2022-10-18T07:40:19;131.50;;;118.33;;
17133;SDS011;8682;52.120;5.252;2022-10-18T07:42:46;129.13;;;117.03;;
17133;SDS011;8682;52.120;5.252;2022-10-18T07:45:14;123.03;;;111.50;;
17133;SDS011;8682;52.120;5.252;2022-10-18T07:47:42;126.20;;;114.80;;
17133;SDS011;8682;52.120;5.252;2022-10-18T07:50:09;131.03;;;119.70;;
17133;SDS011;8682;52.120;5.252;2022-10-18T07:52:36;125.87;;;114.93;;
17133;SDS011;8682;52.120;5.252;2022-10-18T07:55:04;135.70;;;123.00;;
17133;SDS011;8682;52.120;5.252;2022-10-18T07:57:31;129.87;;;118.00;;
17133;SDS011;8682;52.120;5.252;2022-10-18T07:59:58;135.80;;;124.63;;
17133;SDS011;8682;52.120;5.252;2022-10-18T08:02:25;129.07;;;117.47;;
17133;SDS011;8682;52.120;5.252;2022-10-18T08:04:53;126.10;;;114.30;;
17133;SDS011;8682;52.120;5.252;2022-10-18T08:07:20;127.73;;;116.90;;
17133;SDS011;8682;52.120;5.252;2022-10-18T08:09:48;116.50;;;105.57;;
17133;SDS011;8682;52.120;5.252;2022-10-18T08:12:15;110.93;;;100.90;;
17133;SDS011;8682;52.120;5.252;2022-10-18T08:14:42;115.60;;;104.33;;
17133;SDS011;8682;52.120;5.252;2022-10-18T08:17:09;120.97;;;109.47;;
17133;SDS011;8682;52.120;5.252;2022-10-18T08:19:36;113.87;;;102.70;;
17133;SDS011;8682;52.120;5.252;2022-10-18T08:22:04;115.73;;;104.80;;
17133;SDS011;8682;52.120;5.252;2022-10-18T08:24:31;125.33;;;112.03;;
17133;SDS011;8682;52.120;5.252;2022-10-18T08:26:58;115.77;;;104.90;;
17133;SDS011;8682;52.120;5.252;2022-10-18T08:29:27;123.53;;;111.37;;
17133;SDS011;8682;52.120;5.252;2022-10-18T08:31:54;120.60;;;107.50;;
17133;SDS011;8682;52.120;5.252;2022-10-18T08:34:21;125.97;;;113.93;;
17133;SDS011;8682;52.120;5.252;2022-10-18T08:36:48;120.97;;;110.10;;
17133;SDS011;8682;52.120;5.252;2022-10-18T08:39:17;117.90;;;106.67;;
17133;SDS011;8682;52.120;5.252;2022-10-18T08:42:00;126.53;;;114.23;;
17133;SDS011;8682;52.120;5.252;2022-10-18T08:44:42;115.30;;;103.97;;
17133;SDS011;8682;52.120;5.252;2022-10-18T08:47:11;116.93;;;106.53;;
17133;SDS011;8682;52.120;5.252;2022-10-18T08:49:40;129.60;;;117.13;;
17133;SDS011;8682;52.120;5.252;2022-10-18T08:52:11;111.37;;;100.87;;
17133;SDS011;8682;52.120;5.252;2022-10-18T08:54:45;116.07;;;104.83;;
17133;SDS011;8682;52.120;5.252;2022-10-18T08:57:15;118.67;;;106.77;;
17133;SDS011;8682;52.120;5.252;2022-10-18T08:59:43;126.77;;;114.80;;
17133;SDS011;8682;52.120;5.252;2022-10-18T09:02:14;124.93;;;113.63;;
17133;SDS011;8682;52.120;5.252;2022-10-18T09:04:50;121.43;;;109.87;;
17133;SDS011;8682;52.120;5.252;2022-10-18T09:07:25;121.77;;;111.10;;
17133;SDS011;8682;52.120;5.252;2022-10-18T09:10:03;130.53;;;118.43;;
17133;SDS011;8682;52.120;5.252;2022-10-18T09:12:42;136.27;;;122.90;;
17133;SDS011;8682;52.120;5.252;2022-10-18T09:15:15;138.60;;;125.53;;
17133;SDS011;8682;52.120;5.252;2022-10-18T09:20:25;122.60;;;112.07;;
17133;SDS011;8682;52.120;5.252;2022-10-18T09:22:54;144.70;;;133.33;;
17133;SDS011;8682;52.120;5.252;2022-10-18T09:25:24;142.87;;;131.47;;
17133;SDS011;8682;52.120;5.252;2022-10-18T09:27:52;137.93;;;126.20;;
17133;SDS011;8682;52.120;5.252;2022-10-18T09:30:33;137.50;;;126.93;;
17133;SDS011;8682;52.120;5.252;2022-10-18T09:33:05;127.33;;;116.37;;
17133;SDS011;8682;52.120;5.252;2022-10-18T09:35:38;145.80;;;133.53;;
17133;SDS011;8682;52.120;5.252;2022-10-18T09:38:08;145.13;;;133.53;;
17133;SDS011;8682;52.120;5.252;2022-10-18T09:40:37;153.93;;;141.67;;
17133;SDS011;8682;52.120;5.252;2022-10-18T09:43:09;140.30;;;128.10;;
17133;SDS011;8682;52.120;5.252;2022-10-18T09:45:38;139.50;;;128.67;;
17133;SDS011;8682;52.120;5.252;2022-10-18T09:48:06;143.03;;;131.87;;
17133;SDS011;8682;52.120;5.252;2022-10-18T09:50:37;151.30;;;139.10;;
17133;SDS011;8682;52.120;5.252;2022-10-18T09:53:06;149.03;;;135.07;;
17133;SDS011;8682;52.120;5.252;2022-10-18T09:55:39;150.63;;;138.03;;
17133;SDS011;8682;52.120;5.252;2022-10-18T09:58:08;139.63;;;127.57;;
17133;SDS011;8682;52.120;5.252;2022-10-18T10:00:37;148.27;;;136.70;;
17133;SDS011;8682;52.120;5.252;2022-10-18T10:03:09;146.07;;;134.30;;
17133;SDS011;8682;52.120;5.252;2022-10-18T10:05:38;158.17;;;146.40;;
17133;SDS011;8682;52.120;5.252;2022-10-18T10:08:06;145.97;;;134.70;;
17133;SDS011;8682;52.120;5.252;2022-10-18T10:10:33;159.23;;;146.43;;
17133;SDS011;8682;52.120;5.252;2022-10-18T10:13:03;155.90;;;143.27;;
17133;SDS011;8682;52.120;5.252;2022-10-18T10:15:31;144.23;;;131.73;;
17133;SDS011;8682;52.120;5.252;2022-10-18T10:18:00;161.87;;;148.90;;
17133;SDS011;8682;52.120;5.252;2022-10-18T10:20:29;161.40;;;148.60;;
17133;SDS011;8682;52.120;5.252;2022-10-18T10:23:04;155.13;;;143.03;;
17133;SDS011;8682;52.120;5.252;2022-10-18T10:25:32;157.37;;;144.57;;
17133;SDS011;8682;52.120;5.252;2022-10-18T10:28:00;138.50;;;126.03;;
17133;SDS011;8682;52.120;5.252;2022-10-18T10:30:30;133.30;;;121.00;;
17133;SDS011;8682;52.120;5.252;2022-10-18T10:32:58;131.70;;;119.63;;
17133;SDS011;8682;52.120;5.252;2022-10-18T10:35:30;124.93;;;113.67;;
17133;SDS011;8682;52.120;5.252;2022-10-18T10:37:57;121.97;;;110.03;;
17133;SDS011;8682;52.120;5.252;2022-10-18T10:40:24;119.23;;;109.00;;
17133;SDS011;8682;52.120;5.252;2022-10-18T10:42:53;127.40;;;114.37;;
17133;SDS011;8682;52.120;5.252;2022-10-18T10:45:21;113.80;;;102.87;;
17133;SDS011;8682;52.120;5.252;2022-10-18T10:47:50;114.07;;;102.13;;
17133;SDS011;8682;52.120;5.252;2022-10-18T10:50:21;121.00;;;108.00;;
17133;SDS011;8682;52.120;5.252;2022-10-18T10:52:48;103.77;;;92.67;;
17133;SDS011;8682;52.120;5.252;2022-10-18T10:55:16;113.37;;;101.47;;
17133;SDS011;8682;52.120;5.252;2022-10-18T10:57:44;118.50;;;106.17;;
17133;SDS011;8682;52.120;5.252;2022-10-18T11:02:57;151.83;;;135.27;;
17133;SDS011;8682;52.120;5.252;2022-10-18T11:05:30;156.03;;;140.63;;
17133;SDS011;8682;52.120;5.252;2022-10-18T11:08:07;146.80;;;133.17;;
17133;SDS011;8682;52.120;5.252;2022-10-18T11:10:38;167.53;;;153.67;;
17133;SDS011;8682;52.120;5.252;2022-10-18T11:13:13;154.03;;;139.33;;
17133;SDS011;8682;52.120;5.252;2022-10-18T11:15:48;207.80;;;189.87;;
17133;SDS011;8682;52.120;5.252;2022-10-18T11:18:19;427.73;;;391.83;;
17133;SDS011;8682;52.120;5.252;2022-10-18T11:20:48;451.63;;;412.07;;
17133;SDS011;8682;52.120;5.252;2022-10-18T11:23:17;242.17;;;219.20;;
17133;SDS011;8682;52.120;5.252;2022-10-18T11:26:02;216.53;;;196.47;;
17133;SDS011;8682;52.120;5.252;2022-10-18T11:28:33;253.97;;;231.50;;
17133;SDS011;8682;52.120;5.252;2022-10-18T11:31:07;589.17;;;536.60;;
17133;SDS011;8682;52.120;5.252;2022-10-18T11:33:40;909.93;;;814.43;;
17133;SDS011;8682;52.120;5.252;2022-10-18T11:36:11;455.73;;;412.57;;
17133;SDS011;8682;52.120;5.252;2022-10-18T11:38:42;315.90;;;287.17;;
17133;SDS011;8682;52.120;5.252;2022-10-18T11:41:30;414.37;;;378.63;;
17133;SDS011;8682;52.120;5.252;2022-10-18T11:43:58;729.57;;;662.77;;
17133;SDS011;8682;52.120;5.252;2022-10-18T11:46:32;736.80;;;663.50;;
17133;SDS011;8682;52.120;5.252;2022-10-18T11:49:06;1021.33;;;911.13;;
17133;SDS011;8682;52.120;5.252;2022-10-18T11:51:40;1601.30;;;999.90;;
17133;SDS011;8682;52.120;5.252;2022-10-18T11:54:15;1205.93;;;924.60;;
17133;SDS011;8682;52.120;5.252;2022-10-18T11:56:46;1999.90;;;999.90;;
17133;SDS011;8682;52.120;5.252;2022-10-18T11:59:20;1999.90;;;999.90;;
17133;SDS011;8682;52.120;5.252;2022-10-18T12:01:52;1999.90;;;999.90;;
17133;SDS011;8682;52.120;5.252;2022-10-18T12:04:24;1999.90;;;999.90;;
17133;SDS011;8682;52.120;5.252;2022-10-18T12:06:52;1411.30;;;748.67;;
17133;SDS011;8682;52.120;5.252;2022-10-18T12:09:22;1999.90;;;830.90;;
17133;SDS011;8682;52.120;5.252;2022-10-18T12:11:51;1999.90;;;676.77;;
17133;SDS011;8682;52.120;5.252;2022-10-18T12:14:21;1999.90;;;914.90;;
17133;SDS011;8682;52.120;5.252;2022-10-18T12:16:50;1999.90;;;772.40;;
17133;SDS011;8682;52.120;5.252;2022-10-18T12:19:18;1813.47;;;337.80;;
17133;SDS011;8682;52.120;5.252;2022-10-18T12:21:47;1999.90;;;999.90;;
17133;SDS011;8682;52.120;5.252;2022-10-18T12:24:15;1041.87;;;842.47;;
17133;SDS011;8682;52.120;5.252;2022-10-18T12:26:43;1517.67;;;827.50;;
17133;SDS011;8682;52.120;5.252;2022-10-18T12:29:15;950.60;;;858.87;;
17133;SDS011;8682;52.120;5.252;2022-10-18T12:31:44;1084.63;;;748.20;;
17133;SDS011;8682;52.120;5.252;2022-10-18T12:34:21;1999.90;;;923.87;;
17133;SDS011;8682;52.120;5.252;2022-10-18T12:36:54;1999.90;;;999.90;;
17133;SDS011;8682;52.120;5.252;2022-10-18T12:39:27;1056.67;;;734.97;;
17133;SDS011;8682;52.120;5.252;2022-10-18T12:41:56;1913.40;;;846.77;;
17133;SDS011;8682;52.120;5.252;2022-10-18T12:44:25;808.93;;;729.53;;
17133;SDS011;8682;52.120;5.252;2022-10-18T12:46:55;812.17;;;708.43;;
17133;SDS011;8682;52.120;5.252;2022-10-18T12:49:24;1061.60;;;824.90;;
17133;SDS011;8682;52.120;5.252;2022-10-18T12:51:54;1999.90;;;917.83;;
17133;SDS011;8682;52.120;5.252;2022-10-18T12:54:23;1033.53;;;893.37;;
17133;SDS011;8682;52.120;5.252;2022-10-18T12:56:51;1999.90;;;837.83;;
17133;SDS011;8682;52.120;5.252;2022-10-18T13:02:20;1999.90;;;700.30;;
17133;SDS011;8682;52.120;5.252;2022-10-18T13:04:47;1999.90;;;999.90;;
17133;SDS011;8682;52.120;5.252;2022-10-18T13:07:20;1999.90;;;906.13;;
17133;SDS011;8682;52.120;5.252;2022-10-18T13:12:48;1999.90;;;905.07;;
17133;SDS011;8682;52.120;5.252;2022-10-18T13:15:34;1999.90;;;927.67;;
17133;SDS011;8682;52.120;5.252;2022-10-18T13:18:04;1999.90;;;589.77;;
17133;SDS011;8682;52.120;5.252;2022-10-18T13:20:36;1999.90;;;911.37;;
17133;SDS011;8682;52.120;5.252;2022-10-18T13:23:09;1999.90;;;999.90;;
17133;SDS011;8682;52.120;5.252;2022-10-18T13:25:44;1820.23;;;843.30;;
17133;SDS011;8682;52.120;5.252;2022-10-18T13:28:16;1999.90;;;594.97;;
17133;SDS011;8682;52.120;5.252;2022-10-18T13:30:47;1999.90;;;725.83;;
17133;SDS011;8682;52.120;5.252;2022-10-18T13:33:21;1868.10;;;977.17;;
17133;SDS011;8682;52.120;5.252;2022-10-18T13:35:52;1323.13;;;927.70;;
17133;SDS011;8682;52.120;5.252;2022-10-18T13:41:07;1567.97;;;870.70;;
17133;SDS011;8682;52.120;5.252;2022-10-18T13:43:50;1999.30;;;784.80;;
17133;SDS011;8682;52.120;5.252;2022-10-18T13:46:21;1999.90;;;565.53;;
17133;SDS011;8682;52.120;5.252;2022-10-18T13:48:49;1999.90;;;547.73;;
17133;SDS011;8682;52.120;5.252;2022-10-18T13:51:21;1999.90;;;999.90;;
17133;SDS011;8682;52.120;5.252;2022-10-18T13:53:52;1999.90;;;804.50;;
17133;SDS011;8682;52.120;5.252;2022-10-18T13:56:43;1999.90;;;999.90;;
17133;SDS011;8682;52.120;5.252;2022-10-18T13:59:17;1459.90;;;752.17;;
17133;SDS011;8682;52.120;5.252;2022-10-18T14:01:52;740.50;;;663.47;;
17133;SDS011;8682;52.120;5.252;2022-10-18T14:04:37;1932.13;;;874.00;;
17133;SDS011;8682;52.120;5.252;2022-10-18T14:07:06;1999.90;;;775.60;;
17133;SDS011;8682;52.120;5.252;2022-10-18T14:09:35;1999.90;;;896.27;;
17133;SDS011;8682;52.120;5.252;2022-10-18T14:12:13;1999.90;;;973.30;;
17133;SDS011;8682;52.120;5.252;2022-10-18T14:14:45;1999.90;;;872.23;;
17133;SDS011;8682;52.120;5.252;2022-10-18T14:17:24;1809.07;;;900.23;;
17133;SDS011;8682;52.120;5.252;2022-10-18T14:19:55;1288.00;;;851.70;;
17133;SDS011;8682;52.120;5.252;2022-10-18T14:22:23;586.43;;;525.50;;
17133;SDS011;8682;52.120;5.252;2022-10-18T14:24:52;1014.77;;;655.47;;
17133;SDS011;8682;52.120;5.252;2022-10-18T14:27:21;752.50;;;690.60;;
17133;SDS011;8682;52.120;5.252;2022-10-18T14:29:49;788.60;;;707.07;;
17133;SDS011;8682;52.120;5.252;2022-10-18T14:32:21;761.17;;;688.97;;